createdAt,value
2018-12-15T00:02:21.682Z,65.19
2018-12-15T00:06:29.543Z,64.41
2018-12-15T00:10:35.496Z,65.10
2018-12-15T00:14:41.394Z,63.95
2018-12-15T00:18:47.529Z,65.04
2018-12-15T00:22:53.353Z,65.14
2018-12-15T00:26:59.215Z,63.99
2018-12-15T00:31:05.618Z,65.01
2018-12-15T00:35:11.338Z,64.04
2018-12-15T00:39:17.831Z,64.95
2018-12-15T00:43:23.726Z,64.86
2018-12-15T00:47:29.756Z,64.86
2018-12-15T00:51:35.592Z,64.40
2018-12-15T00:55:41.547Z,65.54
2018-12-15T00:59:47.583Z,64.83
2018-12-15T01:03:56.431Z,64.81
2018-12-15T01:08:02.435Z,65.19
2018-12-15T01:12:08.478Z,65.40
2018-12-15T01:16:14.139Z,65.11
2018-12-15T01:20:20.095Z,64.75
2018-12-15T01:24:26.662Z,65.87
2018-12-15T01:28:32.580Z,65.83
2018-12-15T01:32:38.499Z,65.80
2018-12-15T01:36:44.354Z,65.69
2018-12-15T01:40:50.351Z,65.79
2018-12-15T01:44:56.225Z,66.08
2018-12-15T01:49:02.090Z,65.00
2018-12-15T01:53:08.050Z,65.54
2018-12-15T01:57:14.101Z,65.61
2018-12-15T02:01:20.005Z,65.38
2018-12-15T02:05:25.826Z,65.45
2018-12-15T02:09:32.775Z,65.24
2018-12-15T02:13:38.643Z,66.57
2018-12-15T02:17:44.760Z,66.47
2018-12-15T02:21:50.618Z,66.46
2018-12-15T02:25:56.501Z,65.24
2018-12-15T02:30:02.407Z,65.60
2018-12-15T02:34:08.491Z,66.17
2018-12-15T02:38:14.330Z,66.15
2018-12-15T02:42:20.262Z,64.88
2018-12-15T02:46:27.175Z,64.99
2018-12-15T02:50:33.192Z,65.16
2018-12-15T02:54:39.198Z,64.70
2018-12-15T02:58:45.664Z,63.43
2018-12-15T03:02:52.842Z,64.66
2018-12-15T03:06:58.539Z,63.94
2018-12-15T03:11:04.428Z,63.69
2018-12-15T03:15:10.573Z,63.81
2018-12-15T03:19:16.493Z,63.40
2018-12-15T03:23:23.104Z,64.77
2018-12-15T03:27:28.890Z,65.13
2018-12-15T03:31:34.628Z,64.85
2018-12-15T03:35:40.494Z,64.49
2018-12-15T03:39:46.456Z,64.11
2018-12-15T03:43:52.530Z,65.55
2018-12-15T03:47:58.250Z,65.90
2018-12-15T03:52:04.010Z,65.96
2018-12-15T03:56:11.052Z,65.35
2018-12-15T04:00:16.935Z,65.18
2018-12-15T04:04:22.898Z,65.68
2018-12-15T04:08:28.717Z,65.19
2018-12-15T04:12:34.699Z,65.59
2018-12-15T04:16:40.493Z,65.59
2018-12-15T04:20:46.926Z,66.12
2018-12-15T04:24:52.734Z,65.64
2018-12-15T04:28:58.620Z,66.45
2018-12-15T04:33:04.526Z,65.11
2018-12-15T04:37:10.187Z,65.27
2018-12-15T04:41:15.946Z,65.30
2018-12-15T04:45:21.834Z,65.93
2018-12-15T04:49:27.597Z,66.27
2018-12-15T04:53:33.647Z,64.96
2018-12-15T04:57:39.633Z,65.67
2018-12-15T05:01:45.368Z,64.97
2018-12-15T05:05:51.263Z,65.36
2018-12-15T05:09:56.974Z,66.29
2018-12-15T05:14:02.862Z,65.18
2018-12-15T05:18:08.625Z,65.53
2018-12-15T05:22:15.146Z,64.96
2018-12-15T05:26:21.158Z,65.29
2018-12-15T05:30:27.194Z,65.70
2018-12-15T05:34:33.259Z,65.16
2018-12-15T05:38:39.073Z,65.50
2018-12-15T05:42:44.834Z,65.64
2018-12-15T05:46:54.329Z,66.40
2018-12-15T05:51:00.160Z,65.76
2018-12-15T05:55:06.227Z,65.38
2018-12-15T05:59:18.782Z,65.04
2018-12-15T06:03:24.487Z,65.22
2018-12-15T06:07:30.307Z,65.66
2018-12-15T06:11:37.447Z,65.15
2018-12-15T06:15:43.290Z,65.85
2018-12-15T06:19:49.039Z,65.62
2018-12-15T06:23:55.150Z,65.53
2018-12-15T06:28:01.119Z,65.94
2018-12-15T06:32:06.985Z,65.52
2018-12-15T06:36:12.762Z,65.55
2018-12-15T06:40:18.559Z,66.30
2018-12-15T06:44:24.467Z,65.66
2018-12-15T06:48:30.317Z,66.22
2018-12-15T06:52:36.667Z,65.60
2018-12-15T06:56:42.440Z,65.61
2018-12-15T07:00:48.337Z,65.47
2018-12-15T07:04:54.290Z,65.42
2018-12-15T07:09:00.115Z,65.33
2018-12-15T07:13:07.586Z,65.89
2018-12-15T07:17:13.492Z,65.54
2018-12-15T07:21:19.354Z,65.92
2018-12-15T07:25:25.232Z,65.56
2018-12-15T07:29:31.096Z,64.23
2018-12-15T07:33:36.790Z,65.35
2018-12-15T07:37:43.617Z,63.91
2018-12-15T07:41:49.472Z,62.84
2018-12-15T07:45:55.446Z,62.79
2018-12-15T07:50:01.198Z,62.77
2018-12-15T07:54:08.338Z,62.51
2018-12-15T07:58:14.194Z,62.26
2018-12-15T08:02:20.771Z,62.02
2018-12-15T08:06:26.879Z,62.82
2018-12-15T08:10:36.556Z,62.70
2018-12-15T08:14:42.782Z,62.99
2018-12-15T08:18:48.740Z,62.76
2018-12-15T08:22:54.772Z,62.29
2018-12-15T08:27:01.429Z,62.70
2018-12-15T08:31:07.113Z,62.52
2018-12-15T08:35:12.906Z,62.78
2018-12-15T08:39:18.661Z,62.37
2018-12-15T08:43:25.134Z,61.76
2018-12-15T08:47:30.882Z,61.80
2018-12-15T08:51:36.493Z,62.52
2018-12-15T08:55:42.071Z,62.46
2018-12-15T08:59:48.020Z,62.67
2018-12-15T09:03:53.663Z,62.21
2018-12-15T09:07:59.342Z,62.70
2018-12-15T09:12:05.158Z,62.10
2018-12-15T09:16:11.008Z,62.27
2018-12-15T09:20:18.072Z,62.02
2018-12-15T09:24:24.154Z,62.30
2018-12-15T09:28:30.590Z,62.74
2018-12-15T09:32:36.444Z,61.79
2018-12-15T09:36:44.465Z,62.67
2018-12-15T09:40:50.230Z,61.78
2018-12-15T09:44:56.173Z,61.97
2018-12-15T09:49:01.949Z,62.20
2018-12-15T09:53:07.897Z,62.55
2018-12-15T09:57:13.841Z,62.16
2018-12-15T10:01:20.212Z,61.57
2018-12-15T10:05:26.160Z,61.75
2018-12-15T10:09:34.676Z,61.59
2018-12-15T10:13:45.103Z,62.05
2018-12-15T10:22:18.953Z,61.17
2018-12-15T10:26:25.885Z,60.71
2018-12-15T10:30:36.607Z,60.65
2018-12-15T10:34:43.651Z,60.72
2018-12-15T10:38:50.045Z,60.73
2018-12-15T10:42:57.795Z,60.55
2018-12-15T10:47:04.324Z,60.82
2018-12-15T10:51:12.752Z,61.31
2018-12-15T10:55:19.269Z,61.06
2018-12-15T10:59:25.015Z,60.32
2018-12-15T11:03:31.450Z,59.69
2018-12-15T11:07:37.174Z,59.27
2018-12-15T11:11:43.175Z,59.22
2018-12-15T11:15:49.074Z,60.04
2018-12-15T11:19:55.231Z,60.32
2018-12-15T11:24:01.048Z,60.63
2018-12-15T11:28:08.120Z,60.45
2018-12-15T11:32:14.698Z,59.30
2018-12-15T11:36:20.494Z,60.14
2018-12-15T11:40:26.346Z,59.42
2018-12-15T11:44:32.081Z,59.53
2018-12-15T11:48:39.031Z,59.64
2018-12-15T11:52:44.751Z,59.68
2018-12-15T11:56:50.481Z,59.87
2018-12-15T12:00:56.397Z,60.78
2018-12-15T12:05:02.166Z,59.84
2018-12-15T12:09:09.111Z,59.67
2018-12-15T12:13:16.667Z,60.15
2018-12-15T12:17:22.670Z,59.73
2018-12-15T12:21:28.341Z,59.86
2018-12-15T12:25:34.118Z,59.96
2018-12-15T12:29:41.822Z,59.75
2018-12-15T12:33:47.907Z,60.26
2018-12-15T12:37:53.521Z,60.16
2018-12-15T12:41:59.650Z,60.23
2018-12-15T12:50:34.347Z,60.52
2018-12-15T12:54:40.171Z,60.15
2018-12-15T12:58:47.941Z,60.29
2018-12-15T13:02:53.620Z,60.58
2018-12-15T13:06:59.395Z,60.43
2018-12-15T13:11:05.287Z,60.15
2018-12-15T13:15:11.290Z,60.47
2018-12-15T13:19:17.840Z,60.48
2018-12-15T13:23:23.570Z,60.54
2018-12-15T13:27:29.407Z,60.45
2018-12-15T13:31:35.667Z,60.78
2018-12-15T13:35:41.375Z,60.11
2018-12-15T13:39:47.338Z,60.80
2018-12-15T13:43:54.915Z,61.23
2018-12-15T13:48:01.073Z,60.68
2018-12-15T13:52:07.006Z,60.93
2018-12-15T13:56:12.873Z,59.97
2018-12-15T14:00:18.429Z,59.91
2018-12-15T14:04:24.499Z,60.83
2018-12-15T14:08:30.346Z,59.93
2018-12-15T14:12:36.183Z,59.77
2018-12-15T14:16:42.635Z,59.43
2018-12-15T14:20:48.300Z,60.56
2018-12-15T14:24:54.041Z,60.23
2018-12-15T14:29:00.244Z,59.92
2018-12-15T14:33:05.989Z,59.87
2018-12-15T14:37:18.241Z,60.29
2018-12-15T14:41:25.220Z,59.38
2018-12-15T14:45:30.784Z,59.91
2018-12-15T14:49:36.719Z,59.69
2018-12-15T14:53:42.477Z,59.93
2018-12-15T14:57:48.722Z,59.27
2018-12-15T15:01:55.599Z,60.00
2018-12-15T15:06:01.440Z,58.92
2018-12-15T15:10:08.671Z,58.45
2018-12-15T15:14:14.823Z,58.90
2018-12-15T15:18:21.273Z,58.82
2018-12-15T15:22:27.324Z,58.73
2018-12-15T15:26:35.585Z,58.08
2018-12-15T15:30:41.843Z,58.91
2018-12-15T15:34:47.732Z,59.28
2018-12-15T15:38:54.498Z,58.64
2018-12-15T15:43:01.789Z,58.20
2018-12-15T15:47:08.074Z,58.77
2018-12-15T15:51:14.388Z,58.82
2018-12-15T15:55:20.250Z,59.52
2018-12-15T15:59:27.509Z,59.81
2018-12-15T16:03:33.890Z,59.72
2018-12-15T16:07:40.228Z,58.50
2018-12-15T16:11:46.307Z,60.02
2018-12-15T16:15:52.631Z,59.62
2018-12-15T16:19:58.998Z,60.18
2018-12-15T16:24:05.008Z,60.20
2018-12-15T16:28:12.341Z,59.29
2018-12-15T16:32:18.319Z,60.17
2018-12-15T16:36:24.331Z,59.42
2018-12-15T16:40:30.276Z,59.80
2018-12-15T16:44:36.162Z,59.00
2018-12-15T16:48:41.912Z,59.98
2018-12-15T16:52:48.347Z,59.20
2018-12-15T17:15:50.314Z,60.24
2018-12-15T17:19:56.188Z,59.96
2018-12-15T17:24:01.853Z,60.08
2018-12-15T17:28:08.937Z,59.63
2018-12-15T17:32:15.111Z,60.62
2018-12-15T17:36:20.900Z,60.74
2018-12-15T17:40:26.699Z,59.84
2018-12-15T17:44:32.940Z,60.86
2018-12-15T17:48:38.659Z,59.57
2018-12-15T17:52:44.871Z,60.91
2018-12-15T17:56:52.306Z,60.76
2018-12-15T18:00:59.248Z,61.07
2018-12-15T18:05:05.604Z,60.72
2018-12-15T18:09:11.740Z,61.32
2018-12-15T18:17:32.908Z,60.44
2018-12-15T18:21:41.804Z,61.05
2018-12-15T18:25:47.858Z,61.23
2018-12-15T18:29:54.822Z,61.43
2018-12-15T18:34:00.624Z,61.07
2018-12-15T18:38:06.677Z,61.17
2018-12-15T18:42:13.005Z,61.64
2018-12-15T18:46:18.911Z,61.17
2018-12-15T18:50:24.898Z,61.56
2018-12-15T18:54:31.205Z,61.46
2018-12-15T18:58:37.074Z,62.02
2018-12-15T19:02:42.942Z,61.85
2018-12-15T19:06:48.929Z,61.83
2018-12-15T19:10:54.974Z,61.82
2018-12-15T19:15:02.841Z,61.67
2018-12-15T19:19:10.694Z,62.53
2018-12-15T19:23:16.568Z,62.07
2018-12-15T19:27:22.626Z,61.91
2018-12-15T19:31:28.552Z,62.42
2018-12-15T19:35:35.201Z,62.60
2018-12-15T19:39:41.229Z,62.47
2018-12-15T19:43:47.311Z,62.23
2018-12-15T19:47:53.162Z,62.28
2018-12-15T19:51:58.943Z,63.02
2018-12-15T19:56:05.424Z,62.45
2018-12-15T20:00:11.656Z,63.26
2018-12-15T20:04:18.376Z,62.80
2018-12-15T20:08:26.218Z,63.46
2018-12-15T20:12:33.629Z,63.11
2018-12-15T20:16:40.871Z,62.61
2018-12-15T20:20:48.152Z,63.08
2018-12-15T20:24:55.824Z,62.82
2018-12-15T20:29:02.149Z,62.64
2018-12-15T20:33:08.172Z,63.62
2018-12-15T20:37:14.817Z,63.01
2018-12-15T20:41:20.819Z,63.82
2018-12-15T20:45:26.994Z,64.01
2018-12-15T20:49:33.960Z,63.25
2018-12-15T20:53:40.125Z,64.06
2018-12-15T20:57:46.394Z,63.54
2018-12-15T21:01:52.451Z,63.91
2018-12-15T21:05:58.296Z,63.34
2018-12-15T21:10:04.392Z,63.36
2018-12-15T21:14:10.328Z,64.17
2018-12-15T21:18:16.223Z,63.62
2018-12-15T21:22:23.383Z,64.07
2018-12-15T21:26:29.483Z,63.72
2018-12-15T21:30:35.719Z,64.27
2018-12-15T21:34:41.905Z,63.95
2018-12-15T21:38:47.670Z,63.92
2018-12-15T21:42:53.854Z,64.19
2018-12-15T21:46:59.879Z,64.41
2018-12-15T21:51:05.872Z,64.20
2018-12-15T21:55:12.016Z,64.15
2018-12-15T21:59:17.774Z,64.06
2018-12-15T22:03:25.292Z,64.98
2018-12-15T22:07:32.404Z,65.11
2018-12-15T22:11:38.604Z,64.97
2018-12-15T22:15:44.794Z,64.71
2018-12-15T22:19:51.353Z,64.97
2018-12-15T22:23:58.042Z,66.14
2018-12-15T22:28:04.548Z,66.57
2018-12-15T22:32:11.770Z,66.04
2018-12-15T22:36:19.185Z,66.55
2018-12-15T22:40:25.150Z,66.47
2018-12-15T22:44:32.497Z,66.98
2018-12-15T22:48:39.223Z,67.50
2018-12-15T22:52:47.049Z,67.45
2018-12-15T22:56:53.833Z,67.83
2018-12-15T23:01:06.554Z,67.92
2018-12-15T23:05:14.755Z,67.88
2018-12-15T23:09:20.862Z,67.53
2018-12-15T23:13:27.972Z,67.40
2018-12-15T23:17:34.660Z,67.41
2018-12-15T23:21:41.383Z,67.11
2018-12-15T23:25:47.660Z,67.19
2018-12-15T23:29:54.646Z,67.47
2018-12-15T23:34:02.117Z,67.17
2018-12-15T23:38:08.266Z,67.60
2018-12-15T23:42:14.335Z,67.61
2018-12-15T23:46:21.727Z,66.95
2018-12-15T23:50:27.757Z,67.19
2018-12-15T23:54:33.824Z,67.47
2018-12-15T23:58:40.106Z,67.00
